createdAt,value
2023-12-29T00:00:58.462Z,8.37
2023-12-29T00:06:04.113Z,7.47
2023-12-29T00:11:06.511Z,8.43
2023-12-29T00:16:09.215Z,6.70
2023-12-29T00:21:11.783Z,7.53
2023-12-29T00:26:14.234Z,6.70
2023-12-29T00:31:17.218Z,7.80
2023-12-29T00:36:21.153Z,6.40
2023-12-29T00:41:23.638Z,6.20
2023-12-29T00:46:26.081Z,7.70
2023-12-29T00:51:28.613Z,7.10
2023-12-29T00:56:31.145Z,7.37
2023-12-29T01:01:36.887Z,6.17
2023-12-29T01:06:39.561Z,6.43
2023-12-29T01:11:42.096Z,6.17
2023-12-29T01:16:44.486Z,6.27
2023-12-29T01:21:47.049Z,6.40
2023-12-29T01:26:49.617Z,6.23
2023-12-29T01:31:52.152Z,6.77
2023-12-29T01:36:54.586Z,6.50
2023-12-29T01:41:57.761Z,5.17
2023-12-29T01:47:02.015Z,6.80
2023-12-29T01:52:05.122Z,6.07
2023-12-29T01:57:09.853Z,5.37
2023-12-29T02:02:13.344Z,4.67
2023-12-29T02:07:16.520Z,5.30
2023-12-29T02:12:19.872Z,4.53
2023-12-29T02:17:28.939Z,4.00
2023-12-29T02:22:31.375Z,3.27
2023-12-29T02:27:47.526Z,5.30
2023-12-29T02:32:52.033Z,4.60
2023-12-29T02:37:56.943Z,4.20
2023-12-29T02:42:59.624Z,3.63
2023-12-29T02:48:02.719Z,3.80
2023-12-29T02:53:05.996Z,3.97
2023-12-29T02:58:08.540Z,3.97
2023-12-29T03:03:11.000Z,3.70
2023-12-29T03:08:13.461Z,3.37
2023-12-29T03:13:16.102Z,3.53
2023-12-29T03:18:18.778Z,3.10
2023-12-29T03:23:21.319Z,3.57
2023-12-29T03:28:23.783Z,2.90
2023-12-29T03:33:26.312Z,3.03
2023-12-29T03:38:29.604Z,3.53
2023-12-29T03:43:32.063Z,3.00
2023-12-29T03:48:34.754Z,3.80
2023-12-29T03:53:37.342Z,3.10
2023-12-29T03:58:39.820Z,3.50
2023-12-29T04:03:43.464Z,2.93
2023-12-29T04:08:46.028Z,3.20
2023-12-29T04:13:49.048Z,3.63
2023-12-29T04:18:51.517Z,3.20
2023-12-29T04:23:54.013Z,2.87
2023-12-29T04:28:56.424Z,2.87
2023-12-29T04:33:58.831Z,2.33
2023-12-29T04:39:03.051Z,2.97
2023-12-29T04:44:05.622Z,3.03
2023-12-29T04:49:08.109Z,3.33
2023-12-29T04:54:10.574Z,2.80
2023-12-29T04:59:12.994Z,2.57
2023-12-29T05:04:16.092Z,2.97
2023-12-29T05:09:18.891Z,3.47
2023-12-29T05:14:21.366Z,3.27
2023-12-29T05:19:23.828Z,3.70
2023-12-29T05:24:26.227Z,3.40
2023-12-29T05:29:28.673Z,4.10
2023-12-29T05:34:31.097Z,4.30
2023-12-29T05:39:33.547Z,3.70
2023-12-29T05:44:38.924Z,3.20
2023-12-29T05:49:41.628Z,3.47
2023-12-29T05:54:44.174Z,3.40
2023-12-29T05:59:46.798Z,4.23
2023-12-29T06:04:50.381Z,3.57
2023-12-29T06:09:53.006Z,2.87
2023-12-29T06:14:55.669Z,4.10
2023-12-29T06:19:58.162Z,3.30
2023-12-29T06:25:00.858Z,3.07
2023-12-29T06:30:03.543Z,4.20
2023-12-29T06:35:06.325Z,3.93
2023-12-29T06:40:09.395Z,3.63
2023-12-29T06:45:12.673Z,4.27
2023-12-29T06:50:15.258Z,4.67
2023-12-29T06:55:17.900Z,4.50
2023-12-29T07:00:20.381Z,3.40
2023-12-29T07:05:22.901Z,3.40
2023-12-29T07:10:25.511Z,3.57
2023-12-29T07:15:28.092Z,2.30
2023-12-29T07:20:30.652Z,3.23
2023-12-29T07:25:33.175Z,3.43
2023-12-29T07:30:35.705Z,3.80
2023-12-29T07:35:38.287Z,3.27
2023-12-29T07:40:41.610Z,2.93
2023-12-29T07:45:47.039Z,2.17
2023-12-29T07:50:49.629Z,3.00
2023-12-29T07:55:54.589Z,2.87
2023-12-29T08:00:57.078Z,1.60
2023-12-29T08:05:59.539Z,2.70
2023-12-29T08:11:01.938Z,2.93
2023-12-29T08:16:04.756Z,2.53
2023-12-29T08:21:07.208Z,2.93
2023-12-29T08:26:09.708Z,1.97
2023-12-29T08:31:12.699Z,2.27
2023-12-29T08:36:18.827Z,2.07
2023-12-29T08:41:22.314Z,1.93
2023-12-29T08:46:25.780Z,2.10
2023-12-29T08:51:28.600Z,2.43
2023-12-29T08:56:31.401Z,2.33
2023-12-29T09:01:34.838Z,1.33
2023-12-29T09:06:37.507Z,1.27
2023-12-29T09:11:46.597Z,1.73
2023-12-29T09:16:49.210Z,2.00
2023-12-29T09:21:51.681Z,2.67
2023-12-29T09:26:54.208Z,1.37
2023-12-29T09:31:56.717Z,2.20
2023-12-29T09:36:59.343Z,1.20
2023-12-29T09:42:04.964Z,1.40
2023-12-29T09:47:10.976Z,1.37
2023-12-29T09:52:14.953Z,1.50
2023-12-29T09:57:19.192Z,2.20
2023-12-29T10:02:25.055Z,2.00
2023-12-29T10:07:28.191Z,1.17
2023-12-29T10:12:31.957Z,1.50
2023-12-29T10:17:45.205Z,1.90
2023-12-29T10:22:51.040Z,1.80
2023-12-29T10:27:54.167Z,1.80
2023-12-29T10:32:57.276Z,1.07
2023-12-29T10:38:13.177Z,1.33
2023-12-29T10:43:25.873Z,1.10
2023-12-29T10:48:28.431Z,2.83
2023-12-29T10:53:32.231Z,1.83
2023-12-29T10:58:38.350Z,1.87
2023-12-29T11:03:41.758Z,2.10
2023-12-29T11:08:44.284Z,2.20
2023-12-29T11:13:48.133Z,1.30
2023-12-29T11:18:52.674Z,1.77
2023-12-29T11:23:55.245Z,1.80
2023-12-29T11:28:58.178Z,1.80
2023-12-29T11:34:16.229Z,2.27
2023-12-29T11:39:19.366Z,1.63
2023-12-29T11:44:29.167Z,1.47
2023-12-29T11:50:01.545Z,2.73
2023-12-29T11:55:10.457Z,2.47
2023-12-29T12:00:13.417Z,3.07
2023-12-29T12:05:51.796Z,1.97
2023-12-29T12:10:54.384Z,2.00
2023-12-29T12:15:56.845Z,1.80
2023-12-29T12:21:01.985Z,2.13
2023-12-29T12:26:06.752Z,1.70
2023-12-29T12:31:10.350Z,1.93
2023-12-29T12:36:13.111Z,1.20
2023-12-29T12:41:17.239Z,2.00
2023-12-29T12:46:25.439Z,0.77
2023-12-29T12:51:27.922Z,2.37
2023-12-29T12:56:32.122Z,2.33
2023-12-29T13:01:39.081Z,2.70
2023-12-29T13:06:45.204Z,2.37
2023-12-29T13:11:49.178Z,3.37
2023-12-29T13:16:51.967Z,2.73
2023-12-29T13:39:42.881Z,1.97
2023-12-29T13:44:47.264Z,2.73
2023-12-29T13:49:51.319Z,1.67
2023-12-29T13:54:53.982Z,2.67
2023-12-29T13:59:56.570Z,2.97
2023-12-29T14:05:21.238Z,2.23
2023-12-29T14:10:23.919Z,3.83
2023-12-29T14:15:26.562Z,3.20
2023-12-29T14:20:37.775Z,5.17
2023-12-29T14:25:40.346Z,4.73
2023-12-29T14:30:42.933Z,4.70
2023-12-29T14:35:45.472Z,4.27
2023-12-29T14:40:54.973Z,4.20
2023-12-29T14:45:57.798Z,4.70
2023-12-29T14:51:00.507Z,3.90
2023-12-29T14:56:03.044Z,3.47
2023-12-29T15:01:05.524Z,4.17
2023-12-29T15:06:08.134Z,3.60
2023-12-29T15:11:11.311Z,4.03
2023-12-29T15:16:13.780Z,4.03
2023-12-29T15:21:16.262Z,2.43
2023-12-29T15:26:19.805Z,2.73
2023-12-29T15:31:22.651Z,4.03
2023-12-29T15:36:25.408Z,4.07
2023-12-29T15:41:27.864Z,3.90
2023-12-29T15:46:30.522Z,2.70
2023-12-29T15:51:33.048Z,4.10
2023-12-29T15:56:35.472Z,5.50
2023-12-29T16:01:38.007Z,1.83
2023-12-29T16:06:40.672Z,3.57
2023-12-29T16:11:43.330Z,3.53
2023-12-29T16:16:45.772Z,6.73
2023-12-29T16:21:48.281Z,7.47
2023-12-29T16:26:52.491Z,7.60
2023-12-29T16:31:55.163Z,7.57
2023-12-29T16:37:01.079Z,7.60
2023-12-29T16:42:04.956Z,6.20
2023-12-29T16:47:07.434Z,5.87
2023-12-29T16:52:10.407Z,6.90
2023-12-29T16:57:12.899Z,6.73
2023-12-29T17:02:15.402Z,7.43
2023-12-29T17:07:18.042Z,6.60
2023-12-29T17:12:20.735Z,7.13
2023-12-29T17:17:23.160Z,8.33
2023-12-29T17:22:25.733Z,4.30
2023-12-29T17:27:29.872Z,7.83
2023-12-29T17:32:33.213Z,6.90
2023-12-29T17:37:35.743Z,6.37
2023-12-29T17:42:38.171Z,5.63
2023-12-29T17:47:43.634Z,6.57
2023-12-29T17:52:46.281Z,6.13
2023-12-29T17:57:49.047Z,4.30
2023-12-29T18:02:51.570Z,6.17
2023-12-29T18:07:54.170Z,4.60
2023-12-29T18:12:58.589Z,6.33
2023-12-29T18:18:02.075Z,5.23
2023-12-29T18:23:08.506Z,6.93
2023-12-29T18:28:11.308Z,5.23
2023-12-29T18:33:14.669Z,5.73
2023-12-29T18:38:17.537Z,3.87
2023-12-29T18:43:20.331Z,5.37
2023-12-29T18:48:25.225Z,5.37
2023-12-29T18:53:28.238Z,4.10
2023-12-29T18:58:30.687Z,5.07
2023-12-29T19:03:33.641Z,5.40
2023-12-29T19:08:36.038Z,5.87
2023-12-29T19:13:39.644Z,4.97
2023-12-29T19:18:42.074Z,6.60
2023-12-29T19:23:44.687Z,6.77
2023-12-29T19:28:47.573Z,7.07
2023-12-29T19:33:51.736Z,6.43
2023-12-29T19:38:54.210Z,4.37
2023-12-29T19:43:56.651Z,5.67
2023-12-29T19:49:02.595Z,4.27
2023-12-29T19:54:05.876Z,5.73
2023-12-29T19:59:08.234Z,5.47
2023-12-29T20:04:10.894Z,4.17
2023-12-29T20:09:13.405Z,5.53
2023-12-29T20:14:15.959Z,4.90
2023-12-29T20:19:18.688Z,6.23
2023-12-29T20:24:21.236Z,10.27
2023-12-29T20:29:25.358Z,9.67
2023-12-29T20:34:28.307Z,7.93
2023-12-29T20:39:30.831Z,7.77
2023-12-29T20:44:33.279Z,6.80
2023-12-29T20:49:35.818Z,8.03
2023-12-29T20:54:40.577Z,8.27
2023-12-29T20:59:43.025Z,12.83
2023-12-29T21:04:45.689Z,10.40
2023-12-29T21:09:49.610Z,5.77
2023-12-29T21:14:52.079Z,7.40
2023-12-29T21:19:55.180Z,6.33
2023-12-29T21:24:58.912Z,8.23
2023-12-29T21:30:01.413Z,5.83
2023-12-29T21:35:06.450Z,7.33
2023-12-29T21:40:10.484Z,5.70
2023-12-29T21:45:13.028Z,5.57
2023-12-29T21:50:15.686Z,4.10
2023-12-29T21:55:21.778Z,4.83
2023-12-29T22:00:25.097Z,5.20
2023-12-29T22:05:27.738Z,5.43
2023-12-29T22:10:30.404Z,5.17
2023-12-29T22:15:32.853Z,4.87
2023-12-29T22:20:35.851Z,4.73
2023-12-29T22:25:39.472Z,4.73
2023-12-29T22:30:41.963Z,4.57
2023-12-29T22:35:44.655Z,5.67
2023-12-29T22:40:47.442Z,3.83
2023-12-29T22:45:50.383Z,3.90
2023-12-29T22:50:53.082Z,3.47
2023-12-29T22:55:55.723Z,3.67
2023-12-29T23:00:58.501Z,2.90
2023-12-29T23:06:00.979Z,4.03
2023-12-29T23:11:04.501Z,3.57
2023-12-29T23:16:07.435Z,2.83
2023-12-29T23:21:12.903Z,3.23
2023-12-29T23:26:16.436Z,2.20
2023-12-29T23:31:19.320Z,3.53
2023-12-29T23:36:21.806Z,2.47
2023-12-29T23:41:24.269Z,2.87
2023-12-29T23:46:26.862Z,4.23
2023-12-29T23:51:29.215Z,5.37
2023-12-29T23:56:31.642Z,5.03
